Time;durP1;ratioP1;P1;durP2;ratioP2;P2;SDS_P1;SDS_P2;PMS_P1;PMS_P2;Temp;Humidity;BMP_temperature;BMP_pressure;BME280_temperature;BME280_humidity;BME280_pressure;Samples;Min_cycle;Max_cycle;Signal;HPM_P1;HPM_P2
2023/09/13 00:00:10;;;;;;;21.40;13.18;;;;;;;21.70;74.69;100545.34;2041945;29;20810;-71
2023/09/13 00:01:17;;;;;;;21.92;12.40;;;;;;;21.68;74.73;100542.16;2026905;29;21280;-71
2023/09/13 00:02:19;;;;;;;20.20;12.50;;;;;;;21.67;74.87;100546.03;2026954;29;20044;-71
2023/09/13 00:03:20;;;;;;;22.58;13.07;;;;;;;21.67;74.93;100535.88;2041566;29;20776;-71
2023/09/13 00:04:22;;;;;;;27.13;13.73;;;;;;;21.67;75.02;100535.88;2025691;29;20044;-71
2023/09/13 00:05:24;;;;;;;25.30;13.48;;;;;;;21.65;75.33;100537.38;2026441;29;20037;-71
2023/09/13 00:06:26;;;;;;;24.23;14.10;;;;;;;21.62;75.25;100527.94;2041270;29;20026;-71
2023/09/13 00:07:27;;;;;;;23.48;14.00;;;;;;;21.62;75.40;100533.41;2041494;29;20075;-72
2023/09/13 00:08:32;;;;;;;24.17;14.13;;;;;;;21.59;75.76;100528.63;2044269;28;20019;-72
2023/09/13 00:09:34;;;;;;;20.67;12.63;;;;;;;21.60;75.81;100529.44;2049292;28;20078;-72
2023/09/13 00:10:36;;;;;;;21.85;13.50;;;;;;;21.59;75.91;100538.78;2034250;29;20063;-72
2023/09/13 00:11:37;;;;;;;23.52;13.75;;;;;;;21.57;75.75;100525.47;2033917;28;20052;-71
2023/09/13 00:12:43;;;;;;;24.45;14.05;;;;;;;21.58;75.78;100529.78;2032571;29;20894;-71
2023/09/13 00:13:46;;;;;;;24.70;12.95;;;;;;;21.57;75.89;100528.22;2027756;29;20048;-71
2023/09/13 00:14:48;;;;;;;22.25;12.60;;;;;;;21.57;76.03;100519.22;2026146;29;20125;-71
2023/09/13 00:15:50;;;;;;;19.63;11.55;;;;;;;21.57;76.09;100521.97;2034032;29;21541;-71
2023/09/13 00:16:51;;;;;;;23.20;12.40;;;;;;;21.55;76.11;100516.81;2034044;29;20044;-71
2023/09/13 00:17:53;;;;;;;22.15;13.43;;;;;;;21.54;76.02;100520.72;2025684;29;20821;-71
2023/09/13 00:18:55;;;;;;;24.75;13.07;;;;;;;21.54;76.20;100526.19;2026121;29;20108;-71
2023/09/13 00:20:00;;;;;;;22.63;13.60;;;;;;;21.52;76.16;100518.31;2033996;29;20037;-71
2023/09/13 00:21:02;;;;;;;23.83;13.30;;;;;;;21.50;76.23;100517.91;2041490;29;20724;-71
2023/09/13 00:22:05;;;;;;;20.77;13.15;;;;;;;21.50;76.25;100517.06;2033481;29;20127;-71
2023/09/13 00:23:09;;;;;;;20.52;11.80;;;;;;;21.50;76.50;100515.16;2034142;29;20784;-71
2023/09/13 00:24:10;;;;;;;22.55;13.85;;;;;;;21.50;76.18;100515.16;2041569;29;20889;-71
2023/09/13 00:25:12;;;;;;;22.60;12.82;;;;;;;21.49;76.36;100513.56;2033746;29;20043;-71
2023/09/13 00:26:14;;;;;;;22.90;13.25;;;;;;;21.48;76.45;100511.97;2026170;29;20021;-71
2023/09/13 00:27:21;;;;;;;20.65;13.45;;;;;;;21.48;76.25;100517.44;2026155;29;20041;-71
2023/09/13 00:28:24;;;;;;;19.88;12.65;;;;;;;21.49;76.29;100519.03;2026518;29;20903;-71
2023/09/13 00:29:30;;;;;;;22.88;13.75;;;;;;;21.48;76.62;100516.66;2026298;29;20087;-71
2023/09/13 00:30:32;;;;;;;24.63;13.50;;;;;;;21.47;76.38;100526.81;2026019;29;20035;-71
2023/09/13 00:31:35;;;;;;;24.38;13.82;;;;;;;21.46;76.54;100519.72;2034031;29;20044;-71
2023/09/13 00:32:40;;;;;;;24.45;14.25;;;;;;;21.45;76.60;100518.16;2034122;29;20047;-71
2023/09/13 00:33:42;;;;;;;22.13;13.43;;;;;;;21.45;76.85;100518.16;2041586;29;20193;-71
2023/09/13 00:34:46;;;;;;;21.67;12.73;;;;;;;21.44;76.91;100522.03;2041144;29;20051;-72
2023/09/13 00:35:49;;;;;;;20.70;12.43;;;;;;;21.45;76.91;100522.84;2026397;29;20299;-72
2023/09/13 00:36:51;;;;;;;22.20;13.32;;;;;;;21.44;77.02;100519.31;2033835;29;20029;-72
2023/09/13 00:37:52;;;;;;;24.60;14.23;;;;;;;21.43;76.78;100528.63;2025975;29;20771;-72
2023/09/13 00:38:53;;;;;;;20.58;12.38;;;;;;;21.42;76.94;100529.78;2025739;29;20772;-72
2023/09/13 00:40:18;;;;;;;23.77;13.73;;;;;;;21.42;76.95;100529.78;2041625;29;20035;-71
2023/09/13 00:41:22;;;;;;;22.92;13.13;;;;;;;21.41;76.99;100532.91;2033027;29;20904;-72
2023/09/13 00:42:24;;;;;;;25.50;15.15;;;;;;;21.41;76.93;100532.91;2011326;29;20064;-71
2023/09/13 00:43:25;;;;;;;25.33;14.27;;;;;;;21.42;77.21;100535.25;2010680;29;21126;-72
2023/09/13 00:44:28;;;;;;;26.58;14.98;;;;;;;21.42;77.40;100529.00;2026280;29;20033;-71
2023/09/13 00:45:34;;;;;;;27.65;15.90;;;;;;;21.40;78.14;100528.56;2026420;29;20040;-71
2023/09/13 00:46:40;;;;;;;28.42;15.30;;;;;;;21.37;78.23;100527.31;2026722;29;20831;-72
2023/09/13 00:47:44;;;;;;;27.70;15.00;;;;;;;21.36;78.30;100523.00;2034353;29;20128;-72
2023/09/13 00:48:48;;;;;;;25.75;14.63;;;;;;;21.36;78.30;100517.53;2026365;29;20048;-71
2023/09/13 00:49:52;;;;;;;29.13;15.45;;;;;;;21.37;78.42;100516.38;2025955;29;20041;-71
2023/09/13 00:50:56;;;;;;;26.00;15.05;;;;;;;21.35;78.52;100502.28;2018770;29;20065;-71
2023/09/13 00:51:58;;;;;;;28.80;15.43;;;;;;;21.37;78.62;100505.44;2026716;29;20045;-71
2023/09/13 00:53:02;;;;;;;33.80;15.88;;;;;;;21.37;78.64;100499.97;2033694;29;20065;-71
2023/09/13 00:54:05;;;;;;;25.88;14.45;;;;;;;21.36;78.63;100495.66;2033340;29;20092;-71
2023/09/13 00:55:09;;;;;;;34.60;16.83;;;;;;;21.36;78.82;100492.91;2025743;29;20033;-71
2023/09/13 00:56:14;;;;;;;31.48;15.55;;;;;;;21.37;78.71;100491.75;2011519;29;20846;-71
2023/09/13 00:57:21;;;;;;;31.30;15.77;;;;;;;21.38;78.60;100492.56;2026228;29;20077;-71
2023/09/13 00:58:23;;;;;;;31.05;15.70;;;;;;;21.39;78.73;100499.63;2033594;29;20868;-71
2023/09/13 00:59:26;;;;;;;28.60;15.75;;;;;;;21.37;78.47;100491.75;2025877;29;20844;-71
2023/09/13 01:00:30;;;;;;;29.95;15.55;;;;;;;21.39;78.83;100500.41;2026071;29;20029;-69
2023/09/13 01:01:34;;;;;;;30.35;15.15;;;;;;;21.39;78.76;100503.16;2026052;29;20072;-70
2023/09/13 01:02:42;;;;;;;30.13;15.77;;;;;;;21.39;78.57;100497.69;2027059;29;20045;-69
2023/09/13 01:03:43;;;;;;;29.70;16.17;;;;;;;21.41;79.04;100509.06;2018405;29;20149;-69
2023/09/13 01:04:45;;;;;;;32.22;16.60;;;;;;;21.41;78.59;100498.13;2025459;29;20857;-69
2023/09/13 01:05:54;;;;;;;30.23;14.90;;;;;;;21.43;78.67;100511.44;2033982;29;20028;-71
2023/09/13 01:06:58;;;;;;;28.67;14.10;;;;;;;21.43;78.81;100509.50;2018928;29;20190;-72
2023/09/13 01:07:59;;;;;;;27.23;14.38;;;;;;;21.44;78.69;100510.31;2015599;29;20026;-72
2023/09/13 01:09:05;;;;;;;31.05;16.42;;;;;;;21.44;78.60;100510.31;2031826;29;20038;-71
2023/09/13 01:10:08;;;;;;;31.65;15.18;;;;;;;21.44;78.69;100502.91;2041306;28;20035;-71
2023/09/13 01:11:09;;;;;;;31.02;15.80;;;;;;;21.44;78.81;100505.63;2049394;28;20047;-71
2023/09/13 01:12:15;;;;;;;29.45;16.00;;;;;;;21.45;78.77;100506.41;2049720;28;20036;-71
2023/09/13 01:13:17;;;;;;;39.35;17.50;;;;;;;21.44;78.86;100500.16;2042391;28;20024;-71
2023/09/13 01:14:21;;;;;;;39.75;17.88;;;;;;;21.42;79.22;100502.44;2033615;29;20121;-71
2023/09/13 01:15:23;;;;;;;32.00;16.25;;;;;;;21.42;79.21;100498.91;2033541;29;20860;-71
2023/09/13 01:16:31;;;;;;;29.38;15.50;;;;;;;21.40;79.38;100496.53;2017976;29;20041;-71
2023/09/13 01:18:11;;;;;;;30.30;15.93;;;;;;;21.41;79.35;100502.81;2020795;29;20191;-71
2023/09/13 01:19:25;;;;;;;27.38;15.80;;;;;;;21.41;79.38;100503.59;2033421;29;20029;-71
2023/09/13 01:20:53;;;;;;;28.02;13.55;;;;;;;21.41;79.37;100502.81;2027133;29;20029;-71
2023/09/13 01:22:39;;;;;;;29.05;14.70;;;;;;;21.41;79.21;100511.00;2029053;29;20036;-71
2023/09/13 01:23:55;;;;;;;32.42;15.63;;;;;;;21.43;79.20;100514.16;2026246;29;20084;-71
2023/09/13 01:25:08;;;;;;;30.48;15.07;;;;;;;21.43;79.24;100514.97;2021662;29;20066;-71
2023/09/13 01:26:33;;;;;;;24.95;13.63;;;;;;;21.43;78.95;100512.22;2027597;29;20029;-72
2023/09/13 01:28:09;;;;;;;28.88;16.35;;;;;;;21.43;78.87;100506.75;2023581;29;20044;-71
2023/09/13 01:29:18;;;;;;;33.22;17.02;;;;;;;21.44;78.83;100511.09;2028002;29;20048;-71
2023/09/13 01:30:29;;;;;;;30.48;15.57;;;;;;;21.42;79.11;100513.38;2027786;29;20033;-72
2023/09/13 01:31:31;;;;;;;33.17;15.13;;;;;;;21.42;79.07;100513.38;2025614;29;20222;-72
2023/09/13 01:32:35;;;;;;;27.00;14.95;;;;;;;21.43;78.92;100508.69;2025612;29;20037;-72
2023/09/13 01:33:38;;;;;;;22.92;13.43;;;;;;;21.44;78.99;100510.31;2018753;29;20029;-71
2023/09/13 01:34:39;;;;;;;31.40;15.75;;;;;;;21.44;79.11;100511.09;2033238;29;20083;-71
2023/09/13 01:35:46;;;;;;;29.25;14.60;;;;;;;21.44;78.98;100511.09;2025395;29;20056;-71
2023/09/13 01:36:48;;;;;;;25.92;15.02;;;;;;;21.44;79.04;100510.31;2026246;29;20033;-69
2023/09/13 01:37:53;;;;;;;29.13;15.95;;;;;;;21.43;78.81;100506.75;2018161;29;20053;-71
2023/09/13 01:38:58;;;;;;;32.80;16.33;;;;;;;21.44;79.01;100513.84;2027305;29;20033;-70
2023/09/13 01:40:06;;;;;;;22.85;14.00;;;;;;;21.45;78.98;100512.69;2041032;29;20028;-71
2023/09/13 01:41:14;;;;;;;25.30;15.00;;;;;;;21.45;79.28;100512.69;2026861;29;20029;-71
2023/09/13 01:42:16;;;;;;;31.48;16.30;;;;;;;21.46;79.13;100513.47;2026269;29;20087;-71
2023/09/13 01:43:21;;;;;;;31.38;16.25;;;;;;;21.45;79.01;100512.69;2033426;29;20883;-71
2023/09/13 01:44:22;;;;;;;30.00;16.65;;;;;;;21.46;79.10;100508.00;2033696;29;20864;-71
2023/09/13 01:45:28;;;;;;;31.08;16.38;;;;;;;21.45;78.97;100509.94;2041247;29;20033;-71
2023/09/13 01:46:38;;;;;;;30.08;16.15;;;;;;;21.47;79.23;100506.88;2041171;29;20032;-71
2023/09/13 01:47:42;;;;;;;31.90;16.20;;;;;;;21.46;79.07;100517.00;2041228;29;20035;-72
2023/09/13 01:48:46;;;;;;;30.52;16.63;;;;;;;21.46;78.99;100517.00;2033857;29;20088;-71
2023/09/13 01:49:49;;;;;;;36.75;17.52;;;;;;;21.47;78.93;100520.53;2025846;29;20037;-72
2023/09/13 01:50:52;;;;;;;35.80;17.45;;;;;;;21.47;78.97;100513.13;2017942;29;20797;-71
2023/09/13 01:51:56;;;;;;;33.13;16.73;;;;;;;21.46;78.95;100517.00;2026526;29;20140;-71
2023/09/13 01:53:03;;;;;;;29.92;16.63;;;;;;;21.47;79.06;100515.88;2025696;29;20888;-71
2023/09/13 01:54:04;;;;;;;24.80;15.25;;;;;;;21.48;79.18;100511.19;2018729;29;20830;-71
2023/09/13 01:55:10;;;;;;;27.30;14.55;;;;;;;21.46;79.16;100511.53;2033378;29;20032;-71
2023/09/13 01:56:21;;;;;;;29.75;16.95;;;;;;;21.48;79.32;100508.44;2032888;29;20043;-71
2023/09/13 01:57:22;;;;;;;29.27;16.17;;;;;;;21.47;79.32;100510.41;2027475;29;20043;-71
2023/09/13 01:58:32;;;;;;;31.73;15.68;;;;;;;21.47;79.21;100510.41;2034524;29;20045;-71
2023/09/13 01:59:34;;;;;;;28.80;14.43;;;;;;;21.47;79.32;100510.41;2017677;29;20105;-72
2023/09/13 02:00:36;;;;;;;27.73;15.70;;;;;;;21.48;79.23;100522.13;2010351;29;20152;-72
2023/09/13 02:01:38;;;;;;;30.55;17.08;;;;;;;21.47;79.21;100517.81;2018269;29;20793;-72
2023/09/13 02:02:41;;;;;;;31.02;16.33;;;;;;;21.47;79.23;100515.88;2033272;29;20179;-72
2023/09/13 02:03:44;;;;;;;30.45;16.77;;;;;;;21.47;79.21;100518.59;2033201;29;20159;-71
2023/09/13 02:04:49;;;;;;;30.58;16.80;;;;;;;21.47;79.08;100515.06;2033465;29;20056;-71
2023/09/13 02:05:51;;;;;;;27.10;16.42;;;;;;;21.46;79.04;100508.78;2041247;29;20107;-71
2023/09/13 02:06:52;;;;;;;29.92;17.13;;;;;;;21.45;79.14;100507.22;2040947;29;20025;-71
2023/09/13 02:07:54;;;;;;;31.25;16.92;;;;;;;21.46;79.16;100514.25;2038905;29;20141;-71
2023/09/13 02:08:55;;;;;;;29.95;16.92;;;;;;;21.45;79.01;100509.16;2044476;28;20044;-70
2023/09/13 02:09:57;;;;;;;28.85;16.75;;;;;;;21.45;79.18;100509.16;2033365;29;20093;-70
2023/09/13 02:10:59;;;;;;;26.95;15.35;;;;;;;21.43;79.03;100504.03;2033870;28;20037;-71
2023/09/13 02:12:01;;;;;;;31.80;15.75;;;;;;;21.44;79.03;100505.63;2040980;29;21046;-70
2023/09/13 02:13:04;;;;;;;27.63;15.98;;;;;;;21.43;79.21;100504.03;2036471;29;20035;-71
2023/09/13 02:14:06;;;;;;;27.42;15.27;;;;;;;21.42;78.92;100502.44;2040949;29;20053;-70
2023/09/13 02:15:09;;;;;;;26.77;15.57;;;;;;;21.43;78.90;100501.28;2032989;29;20043;-71
2023/09/13 02:16:12;;;;;;;27.35;16.08;;;;;;;21.42;78.94;100499.72;2033936;28;20064;-70
2023/09/13 02:17:18;;;;;;;25.45;15.57;;;;;;;21.43;78.86;100503.22;2040951;29;20786;-70
2023/09/13 02:18:19;;;;;;;25.50;15.27;;;;;;;21.43;78.94;100503.22;2033956;29;20032;-70
2023/09/13 02:19:22;;;;;;;28.27;15.10;;;;;;;21.42;78.98;100505.19;2040869;29;20029;-70
2023/09/13 02:20:27;;;;;;;26.33;15.68;;;;;;;21.42;78.91;100501.66;2040929;29;20036;-71
2023/09/13 02:21:28;;;;;;;25.92;14.75;;;;;;;21.42;78.89;100504.38;2033761;29;20029;-71
2023/09/13 02:22:29;;;;;;;27.17;15.73;;;;;;;21.42;78.89;100504.38;2025411;29;20935;-70
2023/09/13 02:23:31;;;;;;;23.42;14.25;;;;;;;21.42;78.89;100496.97;2032980;29;20044;-71
2023/09/13 02:24:36;;;;;;;29.23;15.95;;;;;;;21.40;78.58;100496.53;2041107;29;20024;-71
2023/09/13 02:25:44;;;;;;;28.60;15.75;;;;;;;21.40;78.71;100499.25;2033993;29;20037;-71
2023/09/13 02:26:45;;;;;;;28.70;16.63;;;;;;;21.39;78.71;100492.22;2033706;29;20779;-70
2023/09/13 02:27:47;;;;;;;27.27;16.05;;;;;;;21.38;78.75;100487.09;2025220;29;20047;-70
2023/09/13 02:28:50;;;;;;;30.00;16.02;;;;;;;21.36;78.71;100487.44;2017724;29;20910;-70
2023/09/13 02:29:54;;;;;;;35.03;15.80;;;;;;;21.35;78.73;100496.81;2035399;28;20121;-70
2023/09/13 02:30:58;;;;;;;25.13;15.95;;;;;;;21.35;78.83;100490.50;2034753;29;20024;-70
2023/09/13 02:32:00;;;;;;;29.13;16.90;;;;;;;21.34;78.93;100495.16;2027489;29;20113;-70
2023/09/13 02:33:03;;;;;;;27.42;15.38;;;;;;;21.33;78.95;100490.84;2026543;29;20025;-70
2023/09/13 02:34:07;;;;;;;27.48;15.45;;;;;;;21.33;78.77;100487.31;2019094;29;20050;-70
2023/09/13 02:35:14;;;;;;;27.75;15.43;;;;;;;21.33;78.95;100487.31;2027127;29;20076;-70
2023/09/13 02:36:16;;;;;;;29.40;16.27;;;;;;;21.33;78.97;100487.31;2035236;29;20139;-70
2023/09/13 02:37:20;;;;;;;30.95;16.15;;;;;;;21.31;78.73;100490.41;2026884;29;20033;-70
2023/09/13 02:38:25;;;;;;;27.15;16.17;;;;;;;21.31;78.86;100479.47;2034850;29;20032;-70
2023/09/13 02:39:45;;;;;;;32.67;16.70;;;;;;;21.30;78.86;100475.16;2034629;29;20143;-71
2023/09/13 02:40:50;;;;;;;23.70;15.10;;;;;;;21.30;78.85;100477.88;2037191;29;20031;-71
2023/09/13 02:41:56;;;;;;;25.13;15.25;;;;;;;21.29;78.70;100487.25;2027284;29;20041;-70
2023/09/13 02:43:07;;;;;;;25.05;14.00;;;;;;;21.28;78.89;100477.47;2035173;29;20029;-71
2023/09/13 02:44:09;;;;;;;23.15;14.13;;;;;;;21.27;78.90;100484.06;2034071;29;20036;-71
2023/09/13 02:45:12;;;;;;;26.00;15.23;;;;;;;21.26;78.68;100477.00;2034366;29;20048;-71
2023/09/13 02:46:32;;;;;;;26.88;14.85;;;;;;;21.25;78.63;100480.91;2026331;29;20136;-71
2023/09/13 02:47:35;;;;;;;29.05;16.35;;;;;;;21.25;78.88;100478.16;2021770;29;20040;-71
2023/09/13 02:48:37;;;;;;;26.70;15.10;;;;;;;21.25;78.76;100480.91;2026062;29;20045;-70
2023/09/13 02:49:42;;;;;;;26.83;15.73;;;;;;;21.25;78.93;100480.91;2033699;29;20072;-71
2023/09/13 02:50:44;;;;;;;25.70;15.00;;;;;;;21.24;78.74;100479.28;2018416;29;21325;-71
2023/09/13 02:51:47;;;;;;;32.60;16.60;;;;;;;21.22;78.84;100481.59;2018019;29;20324;-71
2023/09/13 02:52:52;;;;;;;26.30;16.13;;;;;;;21.19;79.02;100482.31;2010680;29;20057;-71
2023/09/13 02:53:56;;;;;;;29.23;15.35;;;;;;;21.16;79.06;100475.59;2028223;29;20140;-72
2023/09/13 02:54:58;;;;;;;25.63;15.00;;;;;;;21.15;78.90;100475.94;2042257;29;20914;-71
2023/09/13 02:56:04;;;;;;;27.48;15.40;;;;;;;21.16;79.24;100488.47;2026202;29;20029;-71
2023/09/13 02:57:07;;;;;;;26.15;14.63;;;;;;;21.14;79.23;100485.28;2026158;29;20037;-71
2023/09/13 02:58:09;;;;;;;25.80;14.43;;;;;;;21.16;79.08;100493.94;2018958;29;20164;-71
2023/09/13 02:59:10;;;;;;;23.58;13.63;;;;;;;21.15;79.02;100489.59;2034696;29;20021;-71
2023/09/13 03:00:15;;;;;;;22.52;13.90;;;;;;;21.16;79.24;100483.00;2034193;29;20757;-71
2023/09/13 03:01:22;;;;;;;22.67;13.30;;;;;;;21.18;79.31;100491.63;2035251;29;20037;-71
2023/09/13 03:02:23;;;;;;;22.27;12.88;;;;;;;21.18;79.51;100491.63;2027152;29;20788;-71
2023/09/13 03:03:25;;;;;;;23.83;14.15;;;;;;;21.17;79.35;100487.31;2034372;29;20068;-71
2023/09/13 03:04:28;;;;;;;24.20;14.30;;;;;;;21.16;79.40;100497.47;2033763;29;20025;-71
2023/09/13 03:05:32;;;;;;;24.05;14.25;;;;;;;21.17;79.20;100498.25;2026545;29;20955;-71
2023/09/13 03:06:39;;;;;;;23.73;14.30;;;;;;;21.16;79.29;100493.94;2034797;29;20031;-71
2023/09/13 03:07:44;;;;;;;21.75;13.68;;;;;;;21.17;79.16;100495.53;2041183;29;20037;-71
2023/09/13 03:08:46;;;;;;;20.80;13.10;;;;;;;21.16;79.32;100494.72;2042022;28;20044;-71
2023/09/13 03:09:54;;;;;;;24.15;13.38;;;;;;;21.15;79.23;100498.59;2049315;28;21364;-71
2023/09/13 03:10:58;;;;;;;29.60;13.77;;;;;;;21.17;79.22;100501.00;2033326;29;20032;-71
2023/09/13 03:12:01;;;;;;;20.48;12.77;;;;;;;21.17;79.25;100498.25;2034712;28;20834;-71
2023/09/13 03:13:05;;;;;;;23.52;14.18;;;;;;;21.17;79.26;100504.50;2044372;28;20043;-71
2023/09/13 03:14:12;;;;;;;24.63;13.73;;;;;;;21.17;79.16;100503.72;2041165;29;20891;-71
2023/09/13 03:15:17;;;;;;;20.27;13.18;;;;;;;21.18;78.99;100499.84;2041073;29;20039;-71
2023/09/13 03:16:22;;;;;;;22.05;14.27;;;;;;;21.16;79.14;100497.47;2041223;29;21218;-71
2023/09/13 03:17:24;;;;;;;24.38;14.32;;;;;;;21.17;79.17;100495.53;2031835;29;20819;-71
2023/09/13 03:18:29;;;;;;;24.02;14.50;;;;;;;21.14;78.91;100499.75;2041190;29;20041;-71
2023/09/13 03:19:30;;;;;;;22.05;13.88;;;;;;;21.14;78.87;100494.28;2026155;29;20037;-71
2023/09/13 03:20:32;;;;;;;24.48;15.05;;;;;;;21.14;78.99;100497.00;2025208;29;20877;-71
2023/09/13 03:21:36;;;;;;;24.05;13.75;;;;;;;21.15;79.01;100495.06;2026564;29;21211;-71
2023/09/13 03:22:38;;;;;;;23.40;13.18;;;;;;;21.14;78.96;100494.28;2033939;29;20040;-71
2023/09/13 03:23:44;;;;;;;21.60;13.15;;;;;;;21.13;79.13;100489.19;2018781;29;20076;-71
2023/09/13 03:24:47;;;;;;;24.00;14.02;;;;;;;21.13;78.91;100489.19;2019012;29;20971;-71
2023/09/13 03:25:48;;;;;;;21.73;14.25;;;;;;;21.14;79.01;100490.75;2026590;29;20223;-71
2023/09/13 03:26:50;;;;;;;25.38;14.35;;;;;;;21.13;79.06;100494.66;2041869;29;20032;-71
2023/09/13 03:27:52;;;;;;;25.15;14.52;;;;;;;21.12;78.96;100484.84;2034295;29;20048;-71
2023/09/13 03:28:56;;;;;;;26.77;14.27;;;;;;;21.13;78.98;100483.72;2034272;29;21030;-71
2023/09/13 03:30:02;;;;;;;26.35;14.68;;;;;;;21.12;78.89;100484.84;2033529;29;20040;-71
2023/09/13 03:31:14;;;;;;;24.27;13.45;;;;;;;21.12;79.03;100487.56;2027659;29;20033;-70
2023/09/13 03:32:20;;;;;;;25.95;13.32;;;;;;;21.12;78.97;100484.84;2034378;29;20798;-71
2023/09/13 03:33:24;;;;;;;23.85;14.32;;;;;;;21.11;78.82;100480.53;2033881;29;20052;-71
2023/09/13 03:34:28;;;;;;;25.63;14.20;;;;;;;21.08;78.90;100482.00;2034117;29;20045;-71
2023/09/13 03:35:29;;;;;;;27.40;14.18;;;;;;;21.10;78.69;100487.16;2025597;29;20943;-71
2023/09/13 03:36:34;;;;;;;26.30;14.02;;;;;;;21.10;78.87;100484.41;2018891;29;20857;-71
2023/09/13 03:37:36;;;;;;;27.98;13.93;;;;;;;21.09;78.86;100485.53;2026151;29;20029;-71
2023/09/13 03:38:40;;;;;;;28.85;13.98;;;;;;;21.10;78.60;100484.41;2018522;29;20025;-71
2023/09/13 03:39:45;;;;;;;27.63;15.32;;;;;;;21.08;78.72;100489.44;2027735;29;20863;-71
2023/09/13 03:40:47;;;;;;;26.08;14.38;;;;;;;21.06;78.57;100485.13;2033339;29;20021;-71
2023/09/13 03:41:49;;;;;;;25.48;14.63;;;;;;;21.06;78.59;100487.84;2033967;29;20025;-71
2023/09/13 03:42:56;;;;;;;30.10;15.73;;;;;;;21.04;78.59;100487.41;2041771;29;20031;-71
2023/09/13 03:43:58;;;;;;;29.13;14.90;;;;;;;21.04;78.72;100497.53;2050187;28;20035;-71
2023/09/13 03:45:04;;;;;;;29.65;14.57;;;;;;;21.01;78.66;100482.63;2025925;29;20868;-71
2023/09/13 03:46:07;;;;;;;25.42;13.98;;;;;;;21.01;78.63;100484.56;2027527;29;20141;-71
2023/09/13 03:47:12;;;;;;;25.02;14.02;;;;;;;20.99;78.93;100484.13;2025850;29;21251;-71
2023/09/13 03:48:19;;;;;;;28.33;15.07;;;;;;;20.97;78.74;100479.00;2034979;28;20876;-71
2023/09/13 03:49:22;;;;;;;28.17;15.55;;;;;;;20.96;78.93;100473.88;2040851;29;20724;-71
2023/09/13 03:50:26;;;;;;;25.90;15.15;;;;;;;20.95;78.98;100475.03;2025864;29;20148;-71
2023/09/13 03:51:28;;;;;;;27.92;15.90;;;;;;;20.94;79.02;100470.72;2027365;28;20025;-71
2023/09/13 03:52:30;;;;;;;27.88;15.77;;;;;;;20.92;78.99;100462.84;2033847;29;20234;-71
2023/09/13 03:53:32;;;;;;;30.25;16.42;;;;;;;20.91;79.05;100464.03;2026096;29;20056;-71
2023/09/13 03:54:36;;;;;;;29.90;16.00;;;;;;;20.92;79.08;100459.34;2026111;29;20876;-71
2023/09/13 03:55:41;;;;;;;37.08;17.08;;;;;;;20.89;79.20;100460.81;2026163;29;20139;-71
2023/09/13 03:56:47;;;;;;;31.05;15.93;;;;;;;20.91;79.47;100468.69;2033882;29;21296;-71
2023/09/13 03:57:51;;;;;;;28.23;14.85;;;;;;;20.88;79.47;100451.06;2034472;29;20888;-71
2023/09/13 03:58:55;;;;;;;28.65;15.10;;;;;;;20.89;79.46;100463.56;2026189;29;20034;-71
2023/09/13 03:59:57;;;;;;;31.83;15.85;;;;;;;20.90;79.72;100465.16;2026621;29;20037;-71
2023/09/13 04:00:59;;;;;;;30.00;15.45;;;;;;;20.89;79.85;100462.78;2033991;29;20039;-71
2023/09/13 04:02:01;;;;;;;30.40;15.10;;;;;;;20.89;79.93;100468.25;2025878;29;20033;-71
2023/09/13 04:03:05;;;;;;;32.80;14.30;;;;;;;20.88;79.80;100461.97;2026290;29;20144;-70
2023/09/13 04:04:09;;;;;;;33.50;17.00;;;;;;;20.88;79.90;100455.72;2025735;29;20036;-71
2023/09/13 04:05:33;;;;;;;31.38;16.35;;;;;;;20.85;79.91;100457.22;2027143;29;20041;-71
2023/09/13 04:06:35;;;;;;;32.67;16.15;;;;;;;20.87;79.77;100454.94;2024662;29;20045;-71
2023/09/13 04:07:37;;;;;;;41.88;17.65;;;;;;;20.88;79.77;100455.72;2018418;29;20045;-71
2023/09/13 04:08:39;;;;;;;36.45;16.58;;;;;;;20.85;79.84;100454.47;2033461;28;20930;-71
2023/09/13 04:09:43;;;;;;;31.40;16.70;;;;;;;20.85;79.82;100445.50;2049647;28;21051;-71
2023/09/13 04:10:45;;;;;;;35.10;16.23;;;;;;;20.85;80.07;100450.97;2042066;28;20028;-71
2023/09/13 04:11:48;;;;;;;32.70;16.55;;;;;;;20.84;79.97;100455.63;2041668;28;20032;-70
2023/09/13 04:12:49;;;;;;;35.70;15.52;;;;;;;20.84;79.86;100452.91;2023262;29;20044;-71
2023/09/13 04:13:51;;;;;;;36.13;16.90;;;;;;;20.83;79.72;100448.56;2018083;29;20072;-71
2023/09/13 04:14:55;;;;;;;32.67;16.33;;;;;;;20.83;79.81;100448.56;2026864;29;20021;-71
2023/09/13 04:16:01;;;;;;;33.53;15.55;;;;;;;20.81;80.00;100450.88;2034150;29;21286;-71
2023/09/13 04:17:04;;;;;;;32.28;15.70;;;;;;;20.81;79.77;100445.41;2026101;29;21109;-71
2023/09/13 04:18:09;;;;;;;36.55;16.33;;;;;;;20.78;80.20;100444.16;2018346;29;20042;-71
2023/09/13 04:19:11;;;;;;;34.35;17.05;;;;;;;20.80;79.99;100447.31;2019272;29;20033;-71
2023/09/13 04:20:32;;;;;;;38.03;16.95;;;;;;;20.77;80.03;100439.81;2035367;29;20166;-71
2023/09/13 04:21:41;;;;;;;40.28;18.20;;;;;;;20.78;79.90;100441.44;2035281;29;20894;-71
2023/09/13 04:22:47;;;;;;;43.40;18.60;;;;;;;20.78;80.03;100446.09;2034406;29;20086;-71
2023/09/13 04:23:52;;;;;;;46.30;19.25;;;;;;;20.77;79.96;100449.97;2026746;29;20052;-71
2023/09/13 04:24:54;;;;;;;42.65;18.25;;;;;;;20.76;80.00;100453.84;2025801;29;20041;-71
2023/09/13 04:25:59;;;;;;;41.17;18.60;;;;;;;20.76;80.01;100454.63;2026311;29;20829;-71
2023/09/13 04:27:00;;;;;;;43.45;18.23;;;;;;;20.75;80.22;100449.53;2040906;29;20028;-71
2023/09/13 04:28:03;;;;;;;37.40;16.35;;;;;;;20.74;80.27;100450.66;2041647;29;20959;-72
2023/09/13 04:29:14;;;;;;;36.65;16.08;;;;;;;20.76;80.42;100459.31;2018708;29;20152;-70
2023/09/13 04:30:19;;;;;;;36.15;16.52;;;;;;;20.75;80.22;100463.19;2025211;29;20884;-71
2023/09/13 04:31:21;;;;;;;35.83;16.25;;;;;;;20.75;80.24;100463.19;2025973;29;20037;-71
2023/09/13 04:32:26;;;;;;;31.67;15.00;;;;;;;20.73;80.42;100452.59;2033772;28;20028;-71
2023/09/13 04:33:46;;;;;;;32.38;15.50;;;;;;;20.75;80.33;100452.28;2033186;29;20028;-71
2023/09/13 04:34:51;;;;;;;42.97;20.15;;;;;;;20.74;80.14;100453.41;2028375;29;20140;-71
2023/09/13 04:36:07;;;;;;;45.80;20.92;;;;;;;20.74;80.32;100453.41;2021502;29;20036;-71
2023/09/13 04:37:09;;;;;;;54.20;26.65;;;;;;;20.73;80.15;100449.88;2025524;29;20120;-71
2023/09/13 04:38:11;;;;;;;37.83;19.05;;;;;;;20.72;80.26;100452.97;2025542;29;20101;-70
2023/09/13 04:39:19;;;;;;;38.45;17.88;;;;;;;20.73;80.27;100451.81;2033266;29;20071;-71
2023/09/13 04:40:23;;;;;;;40.30;16.83;;;;;;;20.73;80.15;100454.53;2032777;29;20852;-71
2023/09/13 04:41:27;;;;;;;34.35;15.73;;;;;;;20.72;80.33;100452.97;2017245;29;20046;-70
2023/09/13 04:42:41;;;;;;;34.55;16.60;;;;;;;20.72;80.14;100458.44;2018590;29;20054;-71
2023/09/13 04:43:50;;;;;;;34.75;16.33;;;;;;;20.73;80.32;100460.00;2033650;29;20048;-71
2023/09/13 04:44:57;;;;;;;31.38;15.77;;;;;;;20.72;80.29;100461.94;2041460;28;20027;-71
2023/09/13 04:46:00;;;;;;;38.92;17.77;;;;;;;20.73;80.35;100462.75;2044631;28;20079;-70
2023/09/13 04:47:02;;;;;;;37.20;17.05;;;;;;;20.70;80.25;100461.50;2045843;28;20919;-70
2023/09/13 04:48:08;;;;;;;39.03;18.55;;;;;;;20.72;80.07;100458.44;2028996;29;21533;-70
2023/09/13 04:49:11;;;;;;;41.78;20.85;;;;;;;20.71;79.96;100457.66;2019931;29;20039;-70
2023/09/13 04:50:14;;;;;;;37.95;19.85;;;;;;;20.73;80.00;100470.94;2032411;29;20033;-70
2023/09/13 04:51:16;;;;;;;31.83;16.58;;;;;;;20.73;80.20;100463.53;2024370;29;20033;-71
2023/09/13 04:52:18;;;;;;;32.22;16.50;;;;;;;20.73;80.26;100465.47;2024440;29;20033;-70
2023/09/13 04:53:19;;;;;;;34.83;16.50;;;;;;;20.72;80.08;100461.16;2024432;29;20033;-70
2023/09/13 04:54:22;;;;;;;33.58;16.27;;;;;;;20.73;80.15;100463.53;2024836;29;20141;-72